createdAt,value
2023-04-29T00:02:17.865Z,96696.56
2023-04-29T00:04:45.872Z,96696.53
2023-04-29T00:07:12.635Z,96692.19
2023-04-29T00:09:39.228Z,96690.53
2023-04-29T00:12:05.836Z,96680.25
2023-04-29T00:14:32.498Z,96673.44
2023-04-29T00:16:59.308Z,96672.09
2023-04-29T00:19:25.996Z,96667.81
2023-04-29T00:21:52.739Z,96671.38
2023-04-29T00:24:19.348Z,96666.22
2023-04-29T00:26:46.038Z,96667.34
2023-04-29T00:29:12.709Z,96670.09
2023-04-29T00:31:39.449Z,96664.91
2023-04-29T00:34:06.129Z,96664.31
2023-04-29T00:36:32.788Z,96669.50
2023-04-29T00:38:59.398Z,96677.91
2023-04-29T00:41:26.040Z,96683.38
2023-04-29T00:43:52.711Z,96690.16
2023-04-29T00:46:19.531Z,96683.13
2023-04-29T00:48:46.304Z,96671.19
2023-04-29T00:51:12.931Z,96673.09
2023-04-29T00:53:39.613Z,96679.88
2023-04-29T00:56:06.518Z,96679.88
2023-04-29T00:58:33.373Z,96669.53
2023-04-29T01:01:00.749Z,96667.69
2023-04-29T01:03:29.027Z,96660.91
2023-04-29T01:06:33.369Z,96660.91
2023-04-29T01:09:23.830Z,96665.25
2023-04-29T01:12:03.618Z,96661.47
2023-04-29T01:14:31.240Z,96677.75
2023-04-29T01:17:00.329Z,96678.00
2023-04-29T01:19:47.736Z,96687.50
2023-04-29T01:22:14.517Z,96702.91
2023-04-29T01:24:41.206Z,96699.94
2023-04-29T01:27:25.835Z,96699.72
2023-04-29T01:30:26.154Z,96691.59
2023-04-29T01:32:59.866Z,96693.22
2023-04-29T01:35:44.936Z,96692.69
2023-04-29T01:38:25.916Z,96703.00
2023-04-29T01:41:10.653Z,96709.78
2023-04-29T01:43:37.516Z,96716.03
2023-04-29T01:46:15.346Z,96714.09
2023-04-29T01:48:42.020Z,96710.03
2023-04-29T01:51:08.648Z,96708.09
2023-04-29T01:53:35.249Z,96704.81
2023-04-29T01:56:01.979Z,96716.50
2023-04-29T01:58:28.592Z,96706.72
2023-04-29T02:00:55.389Z,96698.06
2023-04-29T02:03:22.179Z,96699.97
2023-04-29T02:05:48.903Z,96694.00
2023-04-29T02:08:15.557Z,96685.06
2023-04-29T02:10:42.169Z,96692.16
2023-04-29T02:13:08.838Z,96681.00
2023-04-29T02:15:35.477Z,96679.34
2023-04-29T02:18:02.186Z,96672.00
2023-04-29T02:20:28.878Z,96678.19
2023-04-29T02:22:55.530Z,96667.63
2023-04-29T02:25:22.256Z,96672.53
2023-04-29T02:27:48.962Z,96664.09
2023-04-29T02:30:15.767Z,96657.53
2023-04-29T02:32:42.483Z,96653.22
2023-04-29T02:35:09.500Z,96652.41
2023-04-29T02:37:36.147Z,96655.38
2023-04-29T02:40:02.858Z,96650.53
2023-04-29T02:42:29.480Z,96655.72
2023-04-29T02:44:56.173Z,96662.75
2023-04-29T02:47:22.915Z,96667.34
2023-04-29T02:49:49.704Z,96673.06
2023-04-29T02:52:16.369Z,96679.00
2023-04-29T02:54:43.411Z,96669.22
2023-04-29T02:57:10.129Z,96670.84
2023-04-29T02:59:36.817Z,96667.84
2023-04-29T03:02:03.423Z,96666.47
2023-04-29T03:04:30.243Z,96670.28
2023-04-29T03:06:57.476Z,96667.25
2023-04-29T03:09:24.157Z,96672.41
2023-04-29T03:11:50.926Z,96666.97
2023-04-29T03:14:17.586Z,96684.88
2023-04-29T03:16:44.394Z,96680.81
2023-04-29T03:19:11.081Z,96690.84
2023-04-29T03:21:37.751Z,96692.50
2023-04-29T03:24:04.555Z,96695.75
2023-04-29T03:26:31.257Z,96694.41
2023-04-29T03:28:57.909Z,96685.75
2023-04-29T03:31:24.882Z,96688.94
2023-04-29T03:33:52.946Z,96682.69
2023-04-29T03:36:19.680Z,96694.09
2023-04-29T03:38:46.358Z,96700.28
2023-04-29T03:41:13.009Z,96697.34
2023-04-29T03:43:39.674Z,96690.53
2023-04-29T03:46:06.380Z,96681.84
2023-04-29T03:48:33.024Z,96680.72
2023-04-29T03:50:59.633Z,96687.81
2023-04-29T03:53:26.383Z,96688.34
2023-04-29T03:55:53.120Z,96684.84
2023-04-29T03:58:19.701Z,96677.50
2023-04-29T04:00:46.303Z,96672.56
2023-04-29T04:03:13.000Z,96672.25
2023-04-29T04:05:39.811Z,96679.31
2023-04-29T04:08:06.466Z,96686.66
2023-04-29T04:10:33.070Z,96679.09
2023-04-29T04:12:59.727Z,96678.19
2023-04-29T04:15:26.345Z,96681.78
2023-04-29T04:17:53.036Z,96689.13
2023-04-29T04:20:19.648Z,96685.38
2023-04-29T04:22:46.252Z,96691.63
2023-04-29T04:25:12.876Z,96685.38
2023-04-29T04:27:39.541Z,96682.94
2023-04-29T04:30:06.899Z,96684.53
2023-04-29T04:32:33.588Z,96685.88
2023-04-29T04:35:00.260Z,96688.84
2023-04-29T04:37:27.057Z,96695.06
2023-04-29T04:39:54.058Z,96690.75
2023-04-29T04:42:21.971Z,96694.88
2023-04-29T04:44:48.598Z,96694.63
2023-04-29T04:47:15.275Z,96698.16
2023-04-29T04:49:42.103Z,96705.19
2023-04-29T04:52:08.759Z,96697.88
2023-04-29T04:54:35.373Z,96704.63
2023-04-29T04:57:02.064Z,96711.13
2023-04-29T04:59:28.697Z,96707.88
2023-04-29T05:01:55.366Z,96709.19
2023-04-29T05:04:22.205Z,96704.59
2023-04-29T05:06:48.908Z,96704.63
2023-04-29T05:09:15.571Z,96706.78
2023-04-29T05:11:42.205Z,96711.66
2023-04-29T05:14:08.858Z,96704.63
2023-04-29T05:16:35.565Z,96707.81
2023-04-29T05:19:02.293Z,96712.13
2023-04-29T05:21:28.952Z,96711.03
2023-04-29T05:23:55.549Z,96706.13
2023-04-29T05:26:22.195Z,96713.19
2023-04-29T05:28:48.823Z,96713.44
2023-04-29T05:31:15.506Z,96710.44
2023-04-29T05:33:42.110Z,96705.06
2023-04-29T05:36:08.774Z,96709.13
2023-04-29T05:38:35.500Z,96722.13
2023-04-29T05:41:02.215Z,96709.63
2023-04-29T05:43:28.819Z,96720.47
2023-04-29T05:45:55.436Z,96723.50
2023-04-29T05:48:22.062Z,96724.56
2023-04-29T05:50:48.763Z,96727.78
2023-04-29T05:53:15.410Z,96724.56
2023-04-29T05:55:42.034Z,96728.88
2023-04-29T05:58:08.704Z,96737.53
2023-04-29T06:00:35.310Z,96744.00
2023-04-29T06:03:01.979Z,96739.72
2023-04-29T06:05:28.898Z,96735.41
2023-04-29T06:07:55.738Z,96735.91
2023-04-29T06:10:22.490Z,96736.47
2023-04-29T06:12:49.161Z,96740.81
2023-04-29T06:15:15.818Z,96748.44
2023-04-29T06:17:42.525Z,96749.00
2023-04-29T06:20:09.772Z,96747.41
2023-04-29T06:22:36.443Z,96754.22
2023-04-29T06:25:03.128Z,96770.22
2023-04-29T06:27:29.790Z,96762.94
2023-04-29T06:29:56.457Z,96764.03
2023-04-29T06:32:23.212Z,96757.56
2023-04-29T06:34:49.822Z,96762.75
2023-04-29T06:37:16.463Z,96765.44
2023-04-29T06:39:43.118Z,96767.66
2023-04-29T06:42:09.720Z,96768.69
2023-04-29T06:44:36.327Z,96772.53
2023-04-29T06:47:03.028Z,96775.78
2023-04-29T06:49:29.753Z,96771.19
2023-04-29T06:51:56.481Z,96777.44
2023-04-29T06:54:23.115Z,96773.06
2023-04-29T06:56:49.680Z,96769.03
2023-04-29T06:59:16.341Z,96770.38
2023-04-29T07:01:44.677Z,96775.53
2023-04-29T07:04:12.054Z,96768.28
2023-04-29T07:06:38.787Z,96771.25
2023-04-29T07:09:05.462Z,96774.75
2023-04-29T07:11:32.110Z,96776.09
2023-04-29T07:13:58.801Z,96776.84
2023-04-29T07:16:25.455Z,96784.19
2023-04-29T07:18:52.073Z,96788.28
2023-04-29T07:21:18.671Z,96794.50
2023-04-29T07:23:45.295Z,96804.56
2023-04-29T07:26:15.953Z,96789.94
2023-04-29T07:28:42.801Z,96799.44
2023-04-29T07:31:09.783Z,96795.44
2023-04-29T07:33:36.580Z,96795.47
2023-04-29T07:36:03.795Z,96800.09
2023-04-29T07:38:30.463Z,96796.56
2023-04-29T07:40:57.115Z,96795.50
2023-04-29T07:43:23.785Z,96802.53
2023-04-29T07:45:50.772Z,96804.22
2023-04-29T07:48:17.403Z,96799.03
2023-04-29T07:50:44.063Z,96806.38
2023-04-29T07:53:10.684Z,96812.63
2023-04-29T07:55:38.084Z,96806.38
2023-04-29T07:58:04.782Z,96804.50
2023-04-29T08:00:31.528Z,96806.44
2023-04-29T08:02:58.430Z,96805.59
2023-04-29T08:05:26.384Z,96808.91
2023-04-29T08:07:53.395Z,96804.38
2023-04-29T08:10:20.140Z,96796.81
2023-04-29T08:12:46.893Z,96790.94
2023-04-29T08:15:13.634Z,96789.34
2023-04-29T08:17:40.566Z,96789.91
2023-04-29T08:20:07.609Z,96789.38
2023-04-29T08:22:34.302Z,96792.38
2023-04-29T08:25:00.993Z,96788.84
2023-04-29T08:27:27.715Z,96801.59
2023-04-29T08:29:54.381Z,96792.66
2023-04-29T08:32:21.108Z,96791.56
2023-04-29T08:34:47.756Z,96802.44
2023-04-29T08:37:15.179Z,96799.19
2023-04-29T08:39:43.198Z,96793.75
2023-04-29T08:42:10.095Z,96794.25
2023-04-29T08:44:36.777Z,96795.91
2023-04-29T08:47:03.380Z,96800.53
2023-04-29T08:49:30.199Z,96795.34
2023-04-29T08:51:57.963Z,96794.28
2023-04-29T08:54:24.596Z,96791.28
2023-04-29T08:56:51.627Z,96787.19
2023-04-29T08:59:18.289Z,96791.28
2023-04-29T09:01:45.181Z,96798.66
2023-04-29T09:05:02.805Z,96793.19
2023-04-29T09:07:29.554Z,96800.25
2023-04-29T09:09:56.180Z,96799.72
2023-04-29T09:12:22.784Z,96803.25
2023-04-29T09:14:49.413Z,96805.69
2023-04-29T09:17:16.002Z,96802.66
2023-04-29T09:19:42.683Z,96805.91
2023-04-29T09:22:09.300Z,96806.16
2023-04-29T09:24:35.905Z,96810.78
2023-04-29T09:27:02.519Z,96805.59
2023-04-29T09:29:29.131Z,96806.13
2023-04-29T09:31:55.826Z,96806.69
2023-04-29T09:34:31.493Z,96807.22
2023-04-29T09:36:58.086Z,96803.13
2023-04-29T09:39:25.093Z,96810.19
2023-04-29T09:41:54.347Z,96803.91
2023-04-29T09:44:25.950Z,96804.97
2023-04-29T09:46:55.641Z,96807.16
2023-04-29T09:49:23.811Z,96811.53
2023-04-29T09:52:00.623Z,96809.59
2023-04-29T09:54:28.331Z,96809.31
2023-04-29T09:56:55.587Z,96811.72
2023-04-29T09:59:22.329Z,96810.38
2023-04-29T10:01:49.698Z,96818.84
2023-04-29T10:04:17.206Z,96813.38
2023-04-29T10:06:44.703Z,96810.84
2023-04-29T10:09:13.929Z,96799.09
2023-04-29T10:11:44.974Z,96797.09
2023-04-29T10:14:13.201Z,96800.38
2023-04-29T10:16:45.811Z,96799.84
2023-04-29T10:19:13.247Z,96801.97
2023-04-29T10:21:39.896Z,96802.56
2023-04-29T10:24:06.539Z,96798.94
2023-04-29T10:26:33.169Z,96794.81
2023-04-29T10:28:59.932Z,96791.31
2023-04-29T10:31:26.963Z,96789.94
2023-04-29T10:33:57.032Z,96792.69
2023-04-29T10:36:24.990Z,96783.47
2023-04-29T10:38:52.857Z,96788.94
2023-04-29T10:41:27.214Z,96785.38
2023-04-29T10:43:54.008Z,96785.03
2023-04-29T10:46:24.288Z,96790.00
2023-04-29T10:48:51.579Z,96785.56
2023-04-29T10:51:28.775Z,96786.81
2023-04-29T10:54:18.386Z,96772.72
2023-04-29T10:56:49.192Z,96780.44
2023-04-29T10:59:35.961Z,96781.69
2023-04-29T11:02:02.596Z,96783.81
2023-04-29T11:04:29.241Z,96787.00
2023-04-29T11:06:56.745Z,96780.72
2023-04-29T11:09:30.669Z,96785.50
2023-04-29T11:12:07.802Z,96783.91
2023-04-29T11:14:41.010Z,96776.94
2023-04-29T11:17:11.387Z,96781.44
2023-04-29T11:19:45.614Z,96781.44
2023-04-29T11:22:17.976Z,96777.72
2023-04-29T11:24:53.674Z,96767.50
2023-04-29T11:27:21.296Z,96768.09
2023-04-29T11:29:47.975Z,96766.16
2023-04-29T11:32:14.778Z,96762.41
2023-04-29T11:34:41.447Z,96765.91
2023-04-29T11:37:08.130Z,96766.00
2023-04-29T11:39:35.480Z,96757.13
2023-04-29T11:42:06.235Z,96768.50
2023-04-29T11:44:36.136Z,96769.78
2023-04-29T11:47:11.780Z,96766.50
2023-04-29T11:49:38.415Z,96762.06
2023-04-29T11:52:05.070Z,96767.22
2023-04-29T11:54:31.781Z,96762.31
2023-04-29T11:56:58.520Z,96762.38
2023-04-29T11:59:25.157Z,96769.22
2023-04-29T12:01:51.758Z,96761.97
2023-04-29T12:04:18.855Z,96772.81
2023-04-29T12:06:46.456Z,96765.47
2023-04-29T12:09:13.130Z,96762.16
2023-04-29T12:11:39.889Z,96754.13
2023-04-29T12:14:06.482Z,96753.56
2023-04-29T12:16:33.562Z,96749.13
2023-04-29T12:19:00.241Z,96750.28
2023-04-29T12:21:26.874Z,96751.78
2023-04-29T12:23:53.593Z,96749.09
2023-04-29T12:26:20.337Z,96753.38
2023-04-29T12:28:48.740Z,96754.06
2023-04-29T12:31:15.355Z,96761.06
2023-04-29T12:33:45.267Z,96752.75
2023-04-29T12:36:17.710Z,96758.31
2023-04-29T12:38:44.328Z,96755.88
2023-04-29T12:41:10.951Z,96748.38
2023-04-29T12:43:37.560Z,96753.72
2023-04-29T12:46:05.489Z,96753.03
2023-04-29T12:48:33.602Z,96753.22
2023-04-29T12:51:01.070Z,96758.75
2023-04-29T12:53:29.155Z,96755.59
2023-04-29T12:55:55.799Z,96767.47
2023-04-29T12:58:22.540Z,96771.44
2023-04-29T13:00:49.368Z,96775.97
2023-04-29T13:03:16.211Z,96772.78
2023-04-29T13:05:43.117Z,96765.16
2023-04-29T13:08:09.891Z,96769.00
2023-04-29T13:10:36.712Z,96765.72
2023-04-29T13:13:03.340Z,96767.72
2023-04-29T13:15:29.948Z,96762.22
2023-04-29T13:17:56.632Z,96761.97
2023-04-29T13:20:23.250Z,96752.28
2023-04-29T13:22:49.896Z,96758.66
2023-04-29T13:25:16.561Z,96761.28
2023-04-29T13:27:43.155Z,96753.75
2023-04-29T13:30:10.103Z,96752.94
2023-04-29T13:35:07.972Z,96752.16
2023-04-29T13:37:34.639Z,96745.00
2023-04-29T13:40:01.900Z,96745.50
2023-04-29T13:42:28.806Z,96744.69
2023-04-29T13:44:55.427Z,96745.16
2023-04-29T13:47:26.196Z,96740.44
2023-04-29T13:50:32.926Z,96738.59
2023-04-29T13:53:19.172Z,96743.03
2023-04-29T13:56:16.419Z,96742.41
2023-04-29T13:58:56.188Z,96746.84
2023-04-29T14:03:31.427Z,96735.53
2023-04-29T14:06:00.701Z,96734.69
2023-04-29T14:08:27.361Z,96736.13
2023-04-29T14:10:54.091Z,96725.78
2023-04-29T14:13:20.756Z,96729.19
2023-04-29T14:15:47.850Z,96725.53
2023-04-29T14:18:14.470Z,96728.81
2023-04-29T14:20:41.173Z,96735.97
2023-04-29T14:23:07.891Z,96735.00
2023-04-29T14:25:34.548Z,96730.75
2023-04-29T14:28:01.400Z,96727.66
2023-04-29T14:30:27.994Z,96720.03
2023-04-29T14:32:54.651Z,96725.38
2023-04-29T14:35:21.274Z,96728.66
2023-04-29T14:37:48.259Z,96728.25
2023-04-29T14:40:15.128Z,96731.19
2023-04-29T14:42:41.801Z,96736.75
2023-04-29T14:45:08.822Z,96737.13
2023-04-29T14:47:35.551Z,96741.56
2023-04-29T14:50:02.436Z,96742.53
2023-04-29T14:52:29.044Z,96746.44
2023-04-29T14:54:55.897Z,96733.34
2023-04-29T14:57:22.632Z,96733.75
2023-04-29T14:59:49.262Z,96729.56
2023-04-29T15:02:15.862Z,96741.91
2023-04-29T15:04:42.596Z,96740.22
2023-04-29T15:07:09.263Z,96731.75
2023-04-29T15:09:35.937Z,96730.56
2023-04-29T15:12:02.549Z,96732.41
2023-04-29T15:14:29.507Z,96739.78
2023-04-29T15:16:56.134Z,96735.53
2023-04-29T15:19:23.760Z,96741.94
2023-04-29T15:21:50.395Z,96732.19
2023-04-29T15:24:17.993Z,96736.25
2023-04-29T15:26:44.592Z,96732.78
2023-04-29T15:29:13.615Z,96735.66
2023-04-29T15:31:40.345Z,96732.09
2023-04-29T15:34:06.965Z,96730.47
2023-04-29T15:36:33.808Z,96730.09
2023-04-29T15:39:00.570Z,96731.91
2023-04-29T15:41:27.170Z,96736.22
2023-04-29T15:43:54.196Z,96738.19
2023-04-29T15:46:20.976Z,96729.25
2023-04-29T15:48:47.649Z,96735.56
2023-04-29T15:51:14.312Z,96729.25
2023-04-29T15:53:41.753Z,96729.72
2023-04-29T15:56:08.432Z,96733.53
2023-04-29T15:58:35.137Z,96732.84
2023-04-29T16:01:01.774Z,96730.72
2023-04-29T16:03:28.951Z,96732.63
2023-04-29T16:05:55.606Z,96735.25
2023-04-29T16:08:22.287Z,96730.00
2023-04-29T16:10:48.928Z,96723.69
2023-04-29T16:13:15.799Z,96722.94
2023-04-29T16:15:42.465Z,96719.41
2023-04-29T16:18:09.129Z,96726.25
2023-04-29T16:20:35.788Z,96723.91
2023-04-29T16:23:02.440Z,96724.44
2023-04-29T16:25:29.064Z,96722.38
2023-04-29T16:27:56.107Z,96720.50
2023-04-29T16:30:22.898Z,96729.69
2023-04-29T16:32:49.651Z,96728.31
2023-04-29T16:35:16.380Z,96728.59
2023-04-29T16:37:42.994Z,96732.94
2023-04-29T16:40:10.148Z,96722.63
2023-04-29T16:42:36.774Z,96721.19
2023-04-29T16:45:03.504Z,96729.84
2023-04-29T16:47:30.325Z,96726.16
2023-04-29T16:49:57.086Z,96721.91
2023-04-29T16:52:23.737Z,96727.44
2023-04-29T16:54:50.425Z,96718.56
2023-04-29T16:57:17.034Z,96718.56
2023-04-29T16:59:43.900Z,96723.06
2023-04-29T17:02:10.501Z,96717.59
2023-04-29T17:04:37.167Z,96717.97
2023-04-29T17:07:03.995Z,96718.16
2023-04-29T17:09:31.488Z,96708.28
2023-04-29T17:12:01.618Z,96723.50
2023-04-29T17:14:28.252Z,96717.63
2023-04-29T17:16:54.907Z,96713.63
2023-04-29T17:19:21.521Z,96706.94
2023-04-29T17:21:48.155Z,96714.72
2023-04-29T17:24:14.815Z,96703.91
2023-04-29T17:26:41.465Z,96696.56
2023-04-29T17:29:09.470Z,96699.69
2023-04-29T17:31:36.158Z,96696.28
2023-04-29T17:34:03.014Z,96698.59
2023-04-29T17:36:31.865Z,96691.84
2023-04-29T17:38:58.666Z,96690.53
2023-04-29T17:41:25.321Z,96690.06
2023-04-29T17:43:51.989Z,96692.56
2023-04-29T17:46:18.730Z,96681.72
2023-04-29T17:48:45.398Z,96680.91
2023-04-29T17:51:12.041Z,96688.31
2023-04-29T17:53:38.650Z,96679.34
2023-04-29T17:56:05.589Z,96683.25
2023-04-29T17:58:32.203Z,96685.19
2023-04-29T18:00:58.867Z,96682.75
2023-04-29T18:03:25.985Z,96685.75
2023-04-29T18:05:53.021Z,96686.63
2023-04-29T18:08:20.920Z,96691.56
2023-04-29T18:10:47.826Z,96698.91
2023-04-29T18:13:15.566Z,96692.16
2023-04-29T18:15:42.164Z,96691.31
2023-04-29T18:18:09.529Z,96699.22
2023-04-29T18:20:36.552Z,96701.19
2023-04-29T18:23:03.151Z,96700.91
2023-04-29T18:25:29.766Z,96700.66
2023-04-29T18:28:03.621Z,96697.09
2023-04-29T18:30:43.084Z,96703.63
2023-04-29T18:33:09.741Z,96700.94
2023-04-29T18:35:38.558Z,96700.16
2023-04-29T18:38:05.164Z,96704.53
2023-04-29T18:40:31.796Z,96709.16
2023-04-29T18:42:58.509Z,96703.69
2023-04-29T18:45:25.099Z,96710.50
2023-04-29T18:47:51.760Z,96711.09
2023-04-29T18:50:18.461Z,96702.38
2023-04-29T18:52:46.029Z,96701.31
2023-04-29T18:55:12.727Z,96708.09
2023-04-29T18:57:39.706Z,96705.34
2023-04-29T19:00:06.971Z,96707.50
2023-04-29T19:02:33.651Z,96709.09
2023-04-29T19:05:00.455Z,96714.25
2023-04-29T19:07:27.187Z,96709.34
2023-04-29T19:09:54.003Z,96711.53
2023-04-29T19:12:20.745Z,96709.88
2023-04-29T19:14:47.385Z,96716.91
2023-04-29T19:17:14.048Z,96717.97
2023-04-29T19:19:40.676Z,96715.81
2023-04-29T19:22:07.430Z,96721.25
2023-04-29T19:24:34.048Z,96717.69
2023-04-29T19:27:00.664Z,96729.88
2023-04-29T19:29:27.261Z,96733.13
2023-04-29T19:31:53.875Z,96724.19
2023-04-29T19:34:20.611Z,96726.59
2023-04-29T19:36:47.424Z,96725.78
2023-04-29T19:39:14.166Z,96729.56
2023-04-29T19:41:40.842Z,96720.09
2023-04-29T19:44:07.495Z,96724.13
2023-04-29T19:46:34.132Z,96723.03
2023-04-29T19:49:00.775Z,96721.66
2023-04-29T19:51:27.535Z,96709.38
2023-04-29T19:53:57.969Z,96718.66
2023-04-29T19:56:24.656Z,96714.66
2023-04-29T19:58:51.297Z,96714.91
2023-04-29T20:01:18.060Z,96720.41
2023-04-29T20:03:44.777Z,96715.25
2023-04-29T20:06:12.993Z,96710.38
2023-04-29T20:08:39.721Z,96713.88
2023-04-29T20:11:06.426Z,96710.13
2023-04-29T20:13:33.243Z,96719.34
2023-04-29T20:16:00.035Z,96719.66
2023-04-29T20:18:26.719Z,96720.75
2023-04-29T20:20:53.415Z,96717.53
2023-04-29T20:23:22.360Z,96723.47
2023-04-29T20:25:48.974Z,96718.34
2023-04-29T20:28:15.589Z,96722.16
2023-04-29T20:30:42.277Z,96719.69
2023-04-29T20:33:09.355Z,96731.09
2023-04-29T20:35:37.412Z,96713.97
2023-04-29T20:38:05.200Z,96721.03
2023-04-29T20:40:31.886Z,96719.66
2023-04-29T20:42:58.581Z,96721.25
2023-04-29T20:45:25.277Z,96719.69
2023-04-29T20:47:52.037Z,96717.75
2023-04-29T20:50:18.833Z,96711.75
2023-04-29T20:52:46.689Z,96729.94
2023-04-29T20:55:13.955Z,96728.81
2023-04-29T20:57:40.752Z,96734.25
2023-04-29T21:00:08.257Z,96743.53
2023-04-29T21:02:35.041Z,96748.06
2023-04-29T21:05:02.027Z,96761.66
2023-04-29T21:07:28.724Z,96763.25
2023-04-29T21:09:56.789Z,96763.34
2023-04-29T21:12:23.534Z,96761.91
2023-04-29T21:14:50.170Z,96758.69
2023-04-29T21:17:16.804Z,96760.53
2023-04-29T21:19:43.417Z,96761.59
2023-04-29T21:22:10.160Z,96766.47
2023-04-29T21:24:36.777Z,96761.09
2023-04-29T21:27:03.389Z,96761.00
2023-04-29T21:29:30.059Z,96741.84
2023-04-29T21:31:56.665Z,96755.53
2023-04-29T21:34:23.390Z,96749.38
2023-04-29T21:36:50.117Z,96744.75
2023-04-29T21:39:16.830Z,96746.97
2023-04-29T21:41:43.901Z,96744.31
2023-04-29T21:44:10.584Z,96749.47
2023-04-29T21:46:37.309Z,96751.34
2023-04-29T21:49:04.143Z,96744.81
2023-04-29T21:51:31.222Z,96743.94
2023-04-29T21:53:57.915Z,96737.38
2023-04-29T21:56:24.626Z,96740.16
2023-04-29T21:58:51.371Z,96741.94
2023-04-29T22:01:18.316Z,96735.78
2023-04-29T22:03:47.422Z,96735.56
2023-04-29T22:06:15.534Z,96743.69
2023-04-29T22:08:42.194Z,96739.38
2023-04-29T22:11:09.110Z,96734.69
2023-04-29T22:13:35.819Z,96734.81
2023-04-29T22:16:03.459Z,96746.19
2023-04-29T22:18:30.110Z,96752.16
2023-04-29T22:20:58.015Z,96749.38
2023-04-29T22:23:24.654Z,96745.84
2023-04-29T22:25:51.254Z,96759.09
2023-04-29T22:28:20.015Z,96754.75
2023-04-29T22:30:46.695Z,96749.69
2023-04-29T22:33:14.418Z,96758.06
2023-04-29T22:35:42.397Z,96760.41
2023-04-29T22:38:10.089Z,96762.03
2023-04-29T22:40:37.412Z,96760.69
2023-04-29T22:43:06.983Z,96755.44
2023-04-29T22:45:33.667Z,96755.81
2023-04-29T22:48:00.877Z,96764.94
2023-04-29T22:50:27.775Z,96763.88
2023-04-29T22:52:54.676Z,96765.00
2023-04-29T22:55:21.381Z,96768.41
2023-04-29T22:57:50.952Z,96775.69
2023-04-29T23:00:17.561Z,96773.88
2023-04-29T23:02:44.244Z,96772.13
2023-04-29T23:05:10.914Z,96775.38
2023-04-29T23:07:37.515Z,96768.94
2023-04-29T23:10:04.449Z,96769.78
2023-04-29T23:12:31.336Z,96779.22
2023-04-29T23:14:58.115Z,96772.91
2023-04-29T23:17:25.089Z,96782.94
2023-04-29T23:19:52.969Z,96781.28
2023-04-29T23:22:22.065Z,96785.81
2023-04-29T23:24:48.737Z,96788.94
2023-04-29T23:27:15.841Z,96787.41
2023-04-29T23:29:43.023Z,96792.38
2023-04-29T23:32:09.858Z,96779.53
2023-04-29T23:34:36.829Z,96783.03
2023-04-29T23:37:03.527Z,96787.19
2023-04-29T23:39:30.261Z,96790.72
2023-04-29T23:41:56.944Z,96790.25
2023-04-29T23:44:24.949Z,96794.03
2023-04-29T23:46:51.650Z,96795.59
2023-04-29T23:49:18.414Z,96795.22
2023-04-29T23:51:46.083Z,96793.31
2023-04-29T23:54:12.893Z,96791.25
2023-04-29T23:56:39.736Z,96791.41
2023-04-29T23:59:06.751Z,96794.25
